Terminal Aerodrome Forecast
Issued by NWS

Home | Current Version | Previous Version | Text Only | Print | Product List | Glossary On
Versions: 1 2 3 4 5 6 7 8 9 10 11 12 13 14 15 16
278
FTUS44 KLIX 111740
TAFMSY
TAF
KMSY 111740Z 1118/1218 24015G22KT P6SM SCT025
     FM120100 23009KT P6SM FEW250
     FM120600 22007KT 4SM BR SKC
     FM121400 24006KT P6SM SCT040=

USA.gov is the U.S. government's official web portal to all federal, state and local government web resources and services.